createdAt,value
2018-07-13T00:04:53.437Z,17.90
2018-07-13T00:09:57.295Z,17.77
2018-07-13T00:15:04.806Z,17.57
2018-07-13T00:20:08.575Z,17.53
2018-07-13T00:25:12.577Z,18.37
2018-07-13T00:30:16.568Z,17.95
2018-07-13T00:35:20.332Z,19.12
2018-07-13T00:40:24.324Z,18.53
2018-07-13T00:45:28.332Z,18.80
2018-07-13T00:50:32.108Z,18.83
2018-07-13T00:55:36.107Z,19.63
2018-07-13T01:00:39.867Z,20.80
2018-07-13T01:05:43.644Z,20.97
2018-07-13T01:10:47.909Z,19.50
2018-07-13T01:15:51.678Z,20.57
2018-07-13T01:20:55.444Z,19.80
2018-07-13T01:25:59.229Z,20.13
2018-07-13T01:31:02.999Z,20.20
2018-07-13T01:36:06.779Z,20.23
2018-07-13T01:41:10.813Z,19.53
2018-07-13T01:46:14.827Z,20.00
2018-07-13T01:51:18.605Z,19.13
2018-07-13T01:56:22.388Z,18.80
2018-07-13T02:01:26.392Z,19.00
2018-07-13T02:06:30.157Z,17.40
2018-07-13T02:11:33.928Z,16.70
2018-07-13T02:16:37.925Z,16.57
2018-07-13T02:21:41.688Z,16.57
2018-07-13T02:26:45.680Z,15.87
2018-07-13T02:31:49.693Z,15.90
2018-07-13T02:36:53.476Z,16.17
2018-07-13T02:41:57.480Z,14.97
2018-07-13T02:47:01.242Z,14.43
2018-07-13T02:52:05.256Z,14.57
2018-07-13T02:57:09.044Z,15.53
2018-07-13T03:02:12.833Z,15.43
2018-07-13T03:07:16.592Z,15.00
2018-07-13T03:12:20.376Z,14.60
2018-07-13T03:17:24.138Z,14.83
2018-07-13T03:22:28.153Z,15.40
2018-07-13T03:27:31.920Z,15.10
2018-07-13T03:32:35.978Z,14.77
2018-07-13T03:37:39.691Z,14.15
2018-07-13T03:42:43.464Z,14.47
2018-07-13T03:47:47.229Z,13.87
2018-07-13T03:52:51.015Z,13.87
2018-07-13T03:57:54.838Z,13.07
2018-07-13T04:02:58.649Z,13.47
2018-07-13T04:08:02.513Z,12.77
2018-07-13T04:13:06.451Z,12.70
2018-07-13T04:18:13.675Z,12.97
2018-07-13T04:23:17.706Z,12.93
2018-07-13T04:28:22.050Z,13.00
2018-07-13T04:33:25.855Z,12.23
2018-07-13T04:38:29.653Z,11.53
2018-07-13T04:43:33.586Z,11.57
2018-07-13T04:48:37.624Z,11.03
2018-07-13T04:53:41.738Z,10.33
2018-07-13T04:58:45.767Z,11.10
2018-07-13T05:03:49.569Z,10.43
2018-07-13T05:08:53.384Z,10.10
2018-07-13T05:13:57.402Z,11.23
2018-07-13T05:19:01.241Z,11.23
2018-07-13T05:24:05.285Z,11.43
2018-07-13T05:29:09.310Z,11.30
2018-07-13T05:34:13.120Z,11.37
2018-07-13T05:39:16.997Z,10.67
2018-07-13T05:44:21.040Z,9.90
2018-07-13T05:49:24.886Z,10.40
2018-07-13T05:54:28.917Z,12.43
2018-07-13T05:59:32.951Z,10.07
2018-07-13T06:04:36.977Z,9.33
2018-07-13T06:09:40.777Z,9.60
2018-07-13T06:14:44.622Z,9.10
2018-07-13T06:19:48.401Z,9.33
2018-07-13T06:24:52.230Z,9.60
2018-07-13T06:29:56.046Z,9.10
2018-07-13T06:35:00.402Z,9.83
2018-07-13T06:40:04.534Z,9.87
2018-07-13T06:45:08.748Z,10.17
2018-07-13T06:50:12.829Z,9.50
2018-07-13T06:55:17.741Z,10.15
2018-07-13T07:00:57.380Z,10.08
2018-07-13T07:06:06.550Z,11.10
2018-07-13T07:11:10.358Z,10.93
2018-07-13T07:16:14.236Z,10.83
2018-07-13T07:21:18.033Z,10.83
2018-07-13T07:26:22.106Z,12.00
2018-07-13T07:31:25.949Z,12.90
2018-07-13T07:36:29.756Z,12.63
2018-07-13T07:41:33.598Z,12.53
2018-07-13T07:46:37.673Z,13.27
2018-07-13T07:51:41.533Z,11.53
2018-07-13T07:56:45.718Z,13.20
2018-07-13T08:01:49.810Z,11.60
2018-07-13T08:06:54.212Z,13.40
2018-07-13T08:11:57.653Z,12.30
2018-07-13T08:17:01.462Z,13.87
2018-07-13T08:22:11.641Z,14.20
2018-07-13T08:27:19.111Z,12.77
2018-07-13T08:32:23.145Z,12.17
2018-07-13T08:37:27.188Z,12.43
2018-07-13T08:42:31.210Z,12.80
2018-07-13T08:47:35.155Z,11.20
2018-07-13T08:52:39.009Z,10.50
2018-07-13T08:57:45.145Z,10.63
2018-07-13T09:02:48.972Z,10.55
2018-07-13T09:07:52.776Z,9.20
2018-07-13T09:12:56.668Z,7.83
2018-07-13T09:18:00.425Z,9.13
2018-07-13T09:23:04.453Z,9.23
2018-07-13T09:28:08.510Z,9.15
2018-07-13T09:33:12.559Z,9.30
2018-07-13T09:38:16.656Z,9.35
2018-07-13T09:43:20.651Z,7.10
2018-07-13T09:48:24.677Z,8.55
2018-07-13T09:53:28.503Z,7.90
2018-07-13T09:58:34.359Z,7.47
2018-07-13T10:03:38.402Z,8.40
2018-07-13T10:08:42.229Z,6.80
2018-07-13T10:13:46.266Z,6.87
2018-07-13T10:18:50.071Z,7.70
2018-07-13T10:23:53.886Z,8.03
2018-07-13T10:28:57.695Z,9.47
2018-07-13T10:34:01.734Z,8.10
2018-07-13T10:39:06.961Z,8.07
2018-07-13T10:44:10.773Z,6.73
2018-07-13T10:49:14.608Z,7.67
2018-07-13T10:54:18.449Z,7.20
2018-07-13T10:59:23.264Z,8.03
2018-07-13T11:04:27.826Z,6.23
2018-07-13T11:09:31.625Z,6.63
2018-07-13T11:14:35.430Z,6.30
2018-07-13T11:19:39.216Z,6.00
2018-07-13T11:24:43.055Z,5.55
2018-07-13T11:29:47.013Z,5.57
2018-07-13T11:34:50.974Z,5.77
2018-07-13T11:39:54.810Z,3.50
2018-07-13T11:44:58.878Z,4.10
2018-07-13T11:50:02.673Z,3.73
2018-07-13T11:55:06.487Z,3.63
2018-07-13T12:00:11.231Z,3.80
2018-07-13T12:05:15.242Z,3.70
2018-07-13T12:10:19.261Z,3.37
2018-07-13T12:15:23.286Z,4.27
2018-07-13T12:20:27.354Z,3.57
2018-07-13T12:25:31.154Z,3.60
2018-07-13T12:30:34.965Z,3.13
2018-07-13T12:35:38.766Z,3.63
2018-07-13T12:40:42.793Z,2.80
2018-07-13T12:45:46.587Z,3.07
2018-07-13T12:50:50.397Z,3.00
2018-07-13T12:55:54.204Z,3.60
2018-07-13T13:00:58.016Z,3.43
2018-07-13T13:06:02.091Z,3.10
2018-07-13T13:11:05.948Z,3.57
2018-07-13T13:16:09.776Z,2.73
2018-07-13T13:21:13.613Z,3.17
2018-07-13T13:26:17.411Z,2.80
2018-07-13T13:31:21.197Z,2.80
2018-07-13T13:36:24.993Z,2.60
2018-07-13T13:41:28.801Z,2.90
2018-07-13T13:46:32.603Z,2.57
2018-07-13T13:51:36.425Z,2.33
2018-07-13T13:56:40.485Z,2.70
2018-07-13T14:01:44.670Z,2.73
2018-07-13T14:06:48.512Z,2.43
2018-07-13T14:11:52.474Z,2.50
2018-07-13T14:16:56.284Z,2.63
2018-07-13T14:22:00.078Z,2.50
2018-07-13T14:27:03.857Z,2.20
2018-07-13T14:32:07.881Z,2.70
2018-07-13T14:37:11.681Z,2.50
2018-07-13T14:42:15.726Z,2.60
2018-07-13T14:47:19.537Z,2.57
2018-07-13T14:52:23.340Z,2.50
2018-07-13T14:57:27.142Z,2.30
2018-07-13T15:02:30.932Z,2.40
2018-07-13T15:07:34.738Z,2.20
2018-07-13T15:12:38.541Z,2.30
2018-07-13T15:17:42.563Z,2.47
2018-07-13T15:22:47.345Z,2.60
2018-07-13T15:27:51.170Z,2.83
2018-07-13T15:32:55.081Z,2.43
2018-07-13T15:37:58.861Z,2.37
2018-07-13T15:43:02.689Z,2.60
2018-07-13T15:48:06.482Z,2.30
2018-07-13T15:53:10.298Z,2.70
2018-07-13T15:58:14.085Z,2.30
2018-07-13T16:03:17.906Z,2.60
2018-07-13T16:08:21.769Z,2.30
2018-07-13T16:18:36.846Z,2.30
2018-07-13T16:23:40.995Z,2.00
2018-07-13T16:28:44.889Z,2.43
2018-07-13T16:33:49.137Z,2.13
2018-07-13T16:38:52.954Z,2.40
2018-07-13T16:43:56.752Z,2.43
2018-07-13T16:49:00.597Z,2.80
2018-07-13T16:54:04.424Z,2.63
2018-07-13T16:59:08.221Z,2.50
2018-07-13T17:04:12.164Z,3.00
2018-07-13T17:09:16.546Z,2.97
2018-07-13T17:14:20.445Z,2.83
2018-07-13T17:19:24.245Z,3.30
2018-07-13T17:24:28.050Z,2.80
2018-07-13T17:29:31.993Z,3.33
2018-07-13T17:34:35.793Z,3.30
2018-07-13T17:45:30.774Z,3.13
2018-07-13T17:50:41.756Z,3.10
2018-07-13T17:55:45.843Z,3.10
2018-07-13T18:00:49.995Z,3.00
2018-07-13T18:05:54.058Z,3.00
2018-07-13T18:10:58.223Z,3.30
2018-07-13T18:16:02.325Z,3.17
2018-07-13T18:21:06.487Z,3.00
2018-07-13T18:26:10.615Z,3.20
2018-07-13T18:31:14.766Z,2.97
2018-07-13T18:36:24.883Z,2.97
2018-07-13T18:41:31.986Z,3.20
2018-07-13T18:46:36.532Z,3.00
2018-07-13T18:51:41.142Z,3.00
2018-07-13T18:56:45.364Z,3.00
2018-07-13T19:01:49.867Z,2.60
2018-07-13T19:06:54.405Z,2.83
2018-07-13T19:11:59.347Z,3.20
2018-07-13T19:17:03.523Z,3.20
2018-07-13T19:22:07.809Z,3.30
2018-07-13T19:27:13.289Z,3.07
2018-07-13T19:32:17.744Z,2.83
2018-07-13T19:37:23.190Z,3.77
2018-07-13T19:42:27.767Z,3.23
2018-07-13T19:47:32.537Z,3.60
2018-07-13T19:52:37.313Z,3.23
2018-07-13T19:57:44.840Z,4.00
2018-07-13T20:02:49.257Z,3.67
2018-07-13T20:07:53.841Z,3.73
2018-07-13T20:12:59.113Z,3.60
2018-07-13T20:18:03.794Z,3.60
2018-07-13T20:23:08.493Z,3.60
2018-07-13T20:28:13.542Z,3.37
2018-07-13T20:33:19.106Z,3.80
2018-07-13T20:38:23.470Z,3.50
2018-07-13T20:43:27.808Z,3.63
2018-07-13T20:48:32.391Z,4.07
2018-07-13T20:53:36.884Z,3.50
2018-07-13T20:58:41.252Z,3.63
2018-07-13T21:09:05.347Z,3.80
2018-07-13T21:14:13.709Z,3.47
2018-07-13T21:19:19.495Z,3.93
2018-07-13T21:24:25.643Z,3.73
2018-07-13T21:29:30.780Z,4.30
2018-07-13T21:34:35.269Z,4.07
2018-07-13T21:39:39.643Z,3.60
2018-07-13T21:44:44.348Z,3.60
2018-07-13T21:49:49.182Z,4.13
2018-07-13T21:54:54.041Z,4.10
2018-07-13T21:59:58.427Z,3.93
2018-07-13T22:05:02.791Z,4.33
2018-07-13T22:10:07.321Z,4.30
2018-07-13T22:15:12.521Z,4.30
2018-07-13T22:20:17.005Z,4.40
2018-07-13T22:25:21.553Z,4.60
2018-07-13T22:30:26.409Z,4.73
2018-07-13T22:35:31.257Z,4.53
2018-07-13T22:40:36.101Z,4.53
2018-07-13T22:45:40.732Z,4.77
2018-07-13T22:50:45.078Z,4.67
2018-07-13T22:55:49.962Z,4.43
2018-07-13T23:00:54.959Z,4.70
2018-07-13T23:06:00.382Z,5.10
2018-07-13T23:11:05.040Z,4.77
2018-07-13T23:16:09.421Z,4.70
2018-07-13T23:21:13.947Z,5.20
2018-07-13T23:26:18.447Z,4.80
2018-07-13T23:31:23.739Z,5.60
2018-07-13T23:36:28.599Z,4.80
2018-07-13T23:41:32.898Z,4.80
2018-07-13T23:46:38.435Z,5.00
2018-07-13T23:51:43.719Z,5.20
2018-07-13T23:56:48.474Z,5.50
